Time;durP1;ratioP1;P1;durP2;ratioP2;P2;SDS_P1;SDS_P2;PMS_P1;PMS_P2;Temp;Humidity;BMP_temperature;BMP_pressure;BME280_temperature;BME280_humidity;BME280_pressure;Samples;Min_cycle;Max_cycle;Signal;HPM_P1;HPM_P2
2022/06/20 00:00:59;;;;;;;7.70;3.65;;;;;;;-148.88;97.78;75444.13;5019403;28;20510;-84
2022/06/20 00:03:27;;;;;;;8.38;3.17;;;;;;;-148.88;97.10;75460.38;5020518;28;20033;-84
2022/06/20 00:05:53;;;;;;;4.70;2.90;;;;;;;-148.88;97.25;75440.06;5019728;28;20072;-83
2022/06/20 00:08:19;;;;;;;8.40;3.13;;;;;;;-148.88;96.28;75474.59;5019378;28;20026;-84
2022/06/20 00:10:45;;;;;;;6.47;2.97;;;;;;;-148.88;96.01;75480.69;5020825;28;20037;-83
2022/06/20 00:13:24;;;;;;;5.97;2.70;;;;;;;-148.88;96.42;75438.03;5019302;28;20018;-84
2022/06/20 00:15:51;;;;;;;4.55;2.63;;;;;;;-148.88;96.52;75440.06;5018945;28;20060;-84
2022/06/20 00:18:18;;;;;;;4.85;2.95;;;;;;;-148.88;96.90;75421.78;5035536;28;20030;-85
2022/06/20 00:20:43;;;;;;;7.43;3.30;;;;;;;-148.88;97.16;75411.63;5020664;28;20072;-84
2022/06/20 00:23:09;;;;;;;6.10;3.20;;;;;;;-148.88;98.21;75417.72;5032694;28;20026;-83
2022/06/20 00:25:36;;;;;;;5.75;3.28;;;;;;;-148.88;98.16;75407.56;5018916;28;20049;-84
2022/06/20 00:28:02;;;;;;;4.15;3.03;;;;;;;-148.88;97.79;75411.63;5019102;28;20112;-84
2022/06/20 00:30:27;;;;;;;8.90;3.33;;;;;;;-148.88;98.35;75421.78;5035236;28;20041;-84
2022/06/20 00:32:52;;;;;;;4.30;2.97;;;;;;;-148.88;98.49;75415.69;5020987;28;20444;-84
2022/06/20 00:35:18;;;;;;;6.32;3.40;;;;;;;-148.88;98.03;75427.88;5036591;28;20025;-84
2022/06/20 00:37:43;;;;;;;5.70;3.20;;;;;;;-148.88;98.13;75417.72;5036298;28;20048;-84
2022/06/20 00:40:34;;;;;;;9.20;3.55;;;;;;;-148.88;98.43;75413.66;5020662;28;20459;-84
2022/06/20 00:42:59;;;;;;;5.78;2.70;;;;;;;-148.88;98.73;75423.81;5020540;28;20473;-82
2022/06/20 00:45:27;;;;;;;6.30;2.97;;;;;;;-148.88;98.22;75431.94;5019020;28;20030;-83
2022/06/20 00:47:59;;;;;;;6.32;3.10;;;;;;;-148.88;97.99;75444.13;5019055;28;20400;-83
2022/06/20 00:50:29;;;;;;;8.05;3.30;;;;;;;-148.88;97.34;75452.25;5021399;28;20099;-84
2022/06/20 00:53:03;;;;;;;7.47;3.00;;;;;;;-148.88;97.68;75450.22;5035818;28;20048;-84
2022/06/20 00:55:53;;;;;;;5.05;2.55;;;;;;;-148.88;97.94;75448.19;5020529;28;20026;-83
2022/06/20 00:58:36;;;;;;;9.00;2.97;;;;;;;-148.88;97.88;75431.94;5018448;28;20029;-84
2022/06/20 01:01:01;;;;;;;7.10;2.90;;;;;;;-148.88;97.89;75452.25;5017874;28;20439;-82
2022/06/20 01:03:32;;;;;;;6.13;3.10;;;;;;;-148.88;98.75;75464.44;5015427;28;20259;-82
2022/06/20 01:06:16;;;;;;;8.13;3.05;;;;;;;-148.88;97.42;75486.78;5016163;28;20030;-83
2022/06/20 01:08:46;;;;;;;7.78;2.40;;;;;;;-148.88;97.52;75476.63;5015520;28;20021;-83
2022/06/20 01:11:24;;;;;;;7.90;3.00;;;;;;;-148.88;96.86;75492.88;5032728;28;20026;-84
2022/06/20 01:13:50;;;;;;;6.43;3.10;;;;;;;-148.88;99.18;75507.09;5018121;28;20032;-83
2022/06/20 01:16:21;;;;;;;7.53;3.17;;;;;;;-148.88;99.76;75519.28;5016507;28;20049;-85
2022/06/20 01:18:49;;;;;;;6.95;3.42;;;;;;;-148.88;100.00;75423.81;5048355;23;20042;-80
2022/06/20 01:21:24;;;;;;;5.90;3.30;;;;;;;-148.88;100.00;75405.53;4994754;28;20037;-79
2022/06/20 01:24:10;;;;;;;6.35;3.30;;;;;;;-148.88;99.81;75458.34;4995450;28;20077;-79
2022/06/20 01:26:55;;;;;;;9.18;3.08;;;;;;;-148.88;100.00;75501.00;4995452;28;20094;-78
2022/06/20 01:29:21;;;;;;;7.43;3.38;;;;;;;-148.88;100.00;75521.31;4996262;28;20093;-79
2022/06/20 01:31:54;;;;;;;7.82;3.10;;;;;;;-148.88;100.00;75549.75;4995978;28;20030;-79
2022/06/20 01:34:20;;;;;;;5.88;3.03;;;;;;;-148.88;99.98;75551.78;4995001;28;20037;-79
2022/06/20 01:39:38;;;;;;;6.82;2.47;;;;;;;-148.88;98.27;75527.41;4996372;28;20053;-79
2022/06/20 01:42:19;;;;;;;5.70;2.40;;;;;;;-148.88;97.51;75513.19;4996171;28;20027;-79
2022/06/20 01:48:05;;;;;;;7.93;2.08;;;;;;;-148.88;95.88;75496.94;4997733;28;20447;-78
2022/06/20 01:50:31;;;;;;;6.70;2.08;;;;;;;-148.88;95.53;75480.69;4997563;28;20493;-79
2022/06/20 01:53:01;;;;;;;6.50;2.17;;;;;;;-148.88;94.39;75482.72;4996688;28;20057;-79
2022/06/20 01:55:28;;;;;;;5.25;2.30;;;;;;;-148.88;94.28;75525.38;4997213;28;20029;-78
2022/06/20 01:57:58;;;;;;;8.18;2.58;;;;;;;-148.88;94.61;75535.53;4998711;28;20056;-79
2022/06/20 02:00:24;;;;;;;8.50;2.42;;;;;;;-148.88;96.96;75557.88;4997570;28;20461;-79
2022/06/20 02:02:53;;;;;;;6.80;2.88;;;;;;;-148.88;97.99;75549.75;4999268;28;20117;-79
2022/06/20 02:05:24;;;;;;;6.75;2.35;;;;;;;-148.88;97.20;75527.41;4999652;28;20030;-79
2022/06/20 02:07:49;;;;;;;8.45;2.65;;;;;;;-148.88;97.08;75501.00;4999633;28;20049;-79
2022/06/20 02:10:26;;;;;;;9.73;2.60;;;;;;;-148.88;95.99;75503.03;4997559;28;20428;-79
2022/06/20 02:12:56;;;;;;;7.20;2.92;;;;;;;-148.88;96.29;75521.31;4999857;28;20019;-79
2022/06/20 02:15:21;;;;;;;7.47;2.67;;;;;;;-148.88;97.92;75559.91;5002806;28;20049;-79
2022/06/20 02:17:49;;;;;;;9.98;3.00;;;;;;;-148.88;98.81;75598.47;5001825;28;20027;-79
2022/06/20 02:20:20;;;;;;;8.73;2.80;;;;;;;-148.88;97.45;75624.88;5002766;28;20029;-80
2022/06/20 02:22:48;;;;;;;9.35;3.30;;;;;;;-148.88;97.39;75651.28;5000981;28;20037;-79
2022/06/20 02:25:19;;;;;;;8.55;2.60;;;;;;;-148.88;98.07;75673.63;4997016;28;20033;-79
2022/06/20 02:27:54;;;;;;;7.28;2.78;;;;;;;-148.88;98.84;75675.66;4996604;28;20072;-79
2022/06/20 02:30:20;;;;;;;10.48;3.20;;;;;;;-148.88;98.92;75673.63;5000061;28;20038;-80
2022/06/20 02:32:57;;;;;;;13.93;3.80;;;;;;;-148.88;99.21;75659.41;4999187;28;20030;-79
2022/06/20 02:35:22;;;;;;;9.32;3.80;;;;;;;-148.88;99.48;75675.66;5000560;28;20026;-78
2022/06/20 02:37:49;;;;;;;11.60;4.22;;;;;;;-148.88;99.37;75673.63;4999440;28;20034;-80
2022/06/20 02:40:22;;;;;;;12.90;3.90;;;;;;;-148.88;99.21;75685.81;5000941;28;20026;-79
2022/06/20 02:43:04;;;;;;;8.80;4.85;;;;;;;-148.88;99.52;75695.97;5000707;28;20034;-79
2022/06/20 02:45:33;;;;;;;12.25;4.55;;;;;;;-148.88;100.00;75687.84;4998496;28;20042;-79
2022/06/20 02:48:02;;;;;;;9.00;4.50;;;;;;;-148.88;100.00;75675.66;4998977;28;20488;-78
2022/06/20 02:50:32;;;;;;;12.15;5.00;;;;;;;-148.88;100.00;75665.50;5000510;28;20401;-79
2022/06/20 02:53:24;;;;;;;11.88;4.65;;;;;;;-148.88;100.00;75667.53;5001194;28;20034;-79
2022/06/20 02:55:51;;;;;;;8.35;3.72;;;;;;;-148.88;100.00;75683.78;5000111;28;20436;-79
2022/06/20 02:58:25;;;;;;;9.75;4.60;;;;;;;-148.88;100.00;75687.84;5000182;28;20038;-80
2022/06/20 03:01:02;;;;;;;7.70;5.03;;;;;;;-148.88;100.00;75679.72;5000564;28;20022;-79
2022/06/20 03:03:35;;;;;;;11.30;5.25;;;;;;;-148.88;100.00;75681.75;4998345;28;20401;-78
2022/06/20 03:06:02;;;;;;;9.63;5.30;;;;;;;-148.88;99.76;75677.69;4995180;28;20026;-79
2022/06/20 03:08:28;;;;;;;11.93;5.18;;;;;;;-148.88;100.00;75675.66;5011720;28;20022;-79
2022/06/20 03:10:55;;;;;;;8.48;5.20;;;;;;;-148.88;100.00;75671.59;4997658;28;20441;-81
2022/06/20 03:13:22;;;;;;;10.55;5.18;;;;;;;-148.88;100.00;75657.38;4995816;28;20117;-82
2022/06/20 03:15:50;;;;;;;7.13;4.47;;;;;;;-148.88;100.00;75643.16;4996375;28;20026;-80
2022/06/20 03:18:19;;;;;;;9.13;4.55;;;;;;;-148.88;100.00;75659.41;4997939;28;20042;-79
2022/06/20 03:20:45;;;;;;;11.48;5.00;;;;;;;-148.88;100.00;75659.41;4997721;28;20034;-78
2022/06/20 03:23:19;;;;;;;8.07;4.32;;;;;;;-148.88;99.74;75653.31;4998261;28;20038;-78
2022/06/20 03:25:45;;;;;;;11.50;4.68;;;;;;;-148.88;100.00;75647.22;4997621;28;20026;-79
2022/06/20 03:28:16;;;;;;;9.80;4.80;;;;;;;-148.88;100.00;75643.16;4997012;28;20130;-79
2022/06/20 03:30:44;;;;;;;12.30;4.53;;;;;;;-148.88;99.74;75651.28;4997723;28;20072;-79
2022/06/20 03:33:14;;;;;;;9.52;4.88;;;;;;;-148.88;99.80;75639.09;4997641;28;20053;-80
2022/06/20 03:35:43;;;;;;;10.38;4.47;;;;;;;-148.88;99.59;75628.94;4998583;28;20034;-79
2022/06/20 03:38:10;;;;;;;9.98;4.15;;;;;;;-148.88;99.64;75612.69;4998678;28;20036;-79
2022/06/20 03:40:38;;;;;;;10.40;4.53;;;;;;;-148.88;99.26;75618.78;4997576;28;20022;-80
2022/06/20 03:43:06;;;;;;;7.95;3.90;;;;;;;-148.88;99.29;75622.84;4995438;28;20026;-81
2022/06/20 03:45:35;;;;;;;11.00;4.38;;;;;;;-148.88;99.21;75608.63;4996536;28;20155;-80
2022/06/20 03:48:13;;;;;;;10.43;4.63;;;;;;;-148.88;99.98;75606.59;4996335;28;20049;-80
2022/06/20 03:50:59;;;;;;;10.02;4.43;;;;;;;-148.88;99.17;75590.34;4995521;28;20109;-80
2022/06/20 03:53:32;;;;;;;10.48;4.45;;;;;;;-148.88;99.96;75561.94;4996597;28;20033;-81
2022/06/20 03:56:18;;;;;;;12.80;4.50;;;;;;;-148.88;100.00;75535.53;4997564;28;20109;-80
2022/06/20 03:59:01;;;;;;;10.30;3.97;;;;;;;-148.88;99.01;75521.31;4999415;28;20117;-81
2022/06/20 04:01:37;;;;;;;12.30;4.53;;;;;;;-148.88;99.28;75517.25;4997521;28;20066;-81
2022/06/20 04:04:17;;;;;;;11.70;4.32;;;;;;;-148.88;99.32;75509.13;4997669;28;20030;-81
2022/06/20 04:06:57;;;;;;;16.48;4.15;;;;;;;-148.88;99.62;75505.06;4997711;28;20122;-79
2022/06/20 04:12:42;;;;;;;12.60;5.05;;;;;;;-148.88;100.00;75478.66;4998217;28;20093;-81
2022/06/20 04:15:15;;;;;;;12.20;4.47;;;;;;;-148.88;100.00;75464.44;4998101;28;20034;-80
2022/06/20 04:20:45;;;;;;;12.23;3.80;;;;;;;-148.88;98.97;75440.06;4995779;28;20025;-78
2022/06/20 04:23:19;;;;;;;9.40;3.65;;;;;;;-148.88;98.76;75423.81;4995057;28;20117;-79
2022/06/20 04:26:09;;;;;;;10.88;3.60;;;;;;;-148.88;98.20;75421.78;4997526;28;20026;-80
2022/06/20 04:28:54;;;;;;;8.27;3.53;;;;;;;-148.88;98.21;75415.69;4998470;28;20054;-80
2022/06/20 04:31:45;;;;;;;11.10;3.45;;;;;;;-148.88;98.38;75407.56;5013101;28;20027;-79
2022/06/20 04:34:18;;;;;;;10.90;3.80;;;;;;;-148.88;97.68;75409.59;4996695;28;20022;-79
2022/06/20 04:37:05;;;;;;;9.23;3.70;;;;;;;-148.88;97.20;75405.53;4997188;28;20053;-80
2022/06/20 04:40:01;;;;;;;10.25;3.40;;;;;;;-148.88;97.39;75401.47;5004257;28;20075;-80
2022/06/20 04:42:38;;;;;;;13.93;4.03;;;;;;;-148.88;97.14;75419.75;5004065;28;20504;-80
2022/06/20 04:45:13;;;;;;;9.70;3.45;;;;;;;-148.88;97.37;75417.72;5014982;28;20109;-80
2022/06/20 04:47:43;;;;;;;11.52;4.00;;;;;;;-148.88;97.32;75429.91;4999346;28;20026;-80
2022/06/20 04:50:17;;;;;;;12.07;3.63;;;;;;;-148.88;96.08;75436.00;4997266;28;20018;-80
2022/06/20 04:52:44;;;;;;;11.25;3.28;;;;;;;-148.88;95.57;75423.81;4997521;28;20120;-80
2022/06/20 04:55:14;;;;;;;8.43;3.10;;;;;;;-148.88;95.77;75415.69;4995364;28;20033;-80
2022/06/20 04:57:39;;;;;;;11.07;3.13;;;;;;;-148.88;96.00;75413.66;4995454;28;20031;-81
2022/06/20 05:00:08;;;;;;;12.48;3.13;;;;;;;-148.88;94.66;75421.78;4993035;28;20026;-80
2022/06/20 05:02:34;;;;;;;13.10;3.55;;;;;;;-148.88;94.36;75411.63;4993797;28;20497;-81
2022/06/20 05:05:04;;;;;;;8.52;2.30;;;;;;;-148.88;92.65;75407.56;4996955;28;20042;-81
2022/06/20 05:07:35;;;;;;;11.68;2.58;;;;;;;-148.88;93.04;75411.63;4998691;28;20022;-82
2022/06/20 05:10:15;;;;;;;9.98;2.30;;;;;;;-148.88;93.67;75421.78;4998777;28;20132;-80
2022/06/20 05:12:40;;;;;;;10.60;2.78;;;;;;;-148.88;92.70;75423.81;4997499;28;20022;-80
2022/06/20 05:15:22;;;;;;;8.37;3.10;;;;;;;-148.88;91.54;75448.19;4995404;28;20030;-83
2022/06/20 05:17:50;;;;;;;9.75;2.67;;;;;;;-148.88;91.27;75462.41;4996036;28;20351;-82
2022/06/20 05:20:32;;;;;;;10.52;2.63;;;;;;;-148.88;90.32;75482.72;4995680;28;20022;-82
2022/06/20 05:23:35;;;;;;;8.90;1.92;;;;;;;-148.88;88.97;75507.09;4996021;28;20030;-82
2022/06/20 05:26:02;;;;;;;8.30;2.17;;;;;;;-148.88;88.36;75496.94;4992891;28;20030;-85
2022/06/20 05:28:33;;;;;;;12.98;2.40;;;;;;;-148.88;87.08;75509.13;5008258;28;20109;-85
2022/06/20 05:31:01;;;;;;;12.02;2.65;;;;;;;-148.88;85.00;75517.25;4992286;28;20026;-85
2022/06/20 05:33:45;;;;;;;8.57;2.00;;;;;;;-148.88;84.57;75527.41;4992947;28;20432;-85
2022/06/20 05:36:22;;;;;;;11.85;2.25;;;;;;;-148.88;85.80;75517.25;4993946;28;20096;-87
2022/06/20 05:39:17;;;;;;;8.52;2.22;;;;;;;-148.88;83.99;75507.09;4993002;28;20029;-85
2022/06/20 05:41:43;;;;;;;7.10;1.88;;;;;;;-148.88;84.91;75505.06;4991009;28;20046;-85
2022/06/20 05:44:12;;;;;;;11.05;2.47;;;;;;;-148.88;83.95;75492.88;5008881;28;20393;-85
2022/06/20 05:46:40;;;;;;;8.45;2.00;;;;;;;-148.88;84.36;75505.06;4994208;28;20416;-85
2022/06/20 05:49:12;;;;;;;10.35;2.30;;;;;;;-148.88;85.07;75505.06;4992326;28;20106;-85
2022/06/20 05:51:40;;;;;;;12.90;2.58;;;;;;;-148.88;84.58;75517.25;5008653;28;20424;-85
2022/06/20 05:54:13;;;;;;;9.25;2.83;;;;;;;-148.88;84.83;75507.09;4992575;28;20030;-85
2022/06/20 05:56:43;;;;;;;13.13;3.20;;;;;;;-148.88;86.79;75529.44;4992311;28;20548;-85
2022/06/20 05:59:26;;;;;;;9.38;2.88;;;;;;;-148.88;85.58;75535.53;4992552;28;20045;-86
2022/06/20 06:01:55;;;;;;;9.20;2.78;;;;;;;-148.88;86.92;75529.44;4992160;28;20033;-85
2022/06/20 06:04:33;;;;;;;10.25;2.90;;;;;;;-148.88;87.28;75541.63;4992322;28;20120;-87
2022/06/20 06:07:09;;;;;;;10.35;2.70;;;;;;;-148.88;87.65;75547.72;4992394;28;20028;-86
2022/06/20 06:09:47;;;;;;;11.90;3.40;;;;;;;-148.88;88.55;75551.78;4992590;28;20049;-86
2022/06/20 06:12:22;;;;;;;9.95;3.28;;;;;;;-148.88;88.00;75563.97;4992607;28;20026;-87
2022/06/20 06:15:13;;;;;;;11.23;2.78;;;;;;;-148.88;88.39;75555.84;4993010;28;20076;-87
2022/06/20 06:17:51;;;;;;;8.60;2.95;;;;;;;-148.88;88.02;75549.75;4992565;28;20030;-86
2022/06/20 06:20:23;;;;;;;13.20;3.22;;;;;;;-148.88;87.12;75555.84;4993319;28;20082;-86
2022/06/20 06:22:54;;;;;;;9.88;3.10;;;;;;;-148.88;85.35;75561.94;4992563;28;20113;-88
2022/06/20 06:25:28;;;;;;;10.20;2.28;;;;;;;-148.88;85.88;75563.97;4992074;28;20037;-87
2022/06/20 06:27:57;;;;;;;9.88;3.00;;;;;;;-148.88;86.39;75549.75;4992800;28;20023;-87
2022/06/20 06:30:32;;;;;;;9.95;2.35;;;;;;;-148.88;84.64;75553.81;4995203;28;20022;-88
2022/06/20 06:33:07;;;;;;;11.90;2.10;;;;;;;-148.88;83.03;75545.69;4995647;28;20088;-88
2022/06/20 06:35:43;;;;;;;8.35;2.40;;;;;;;-148.88;83.65;75527.41;4995841;28;20023;-88
2022/06/20 06:38:19;;;;;;;14.02;2.90;;;;;;;-148.88;84.79;75521.31;5011691;28;20034;-86
2022/06/20 06:40:48;;;;;;;10.90;3.67;;;;;;;-148.88;85.60;75507.09;4996732;28;20421;-86
2022/06/20 06:43:23;;;;;;;8.60;2.78;;;;;;;-148.88;85.36;75501.00;4995437;28;20085;-86
2022/06/20 06:45:54;;;;;;;9.32;2.90;;;;;;;-148.88;85.88;75482.72;4995475;28;20080;-86
2022/06/20 06:48:28;;;;;;;13.18;3.60;;;;;;;-148.88;85.98;75476.63;4995172;28;20022;-87
2022/06/20 06:51:08;;;;;;;11.82;3.00;;;;;;;-148.88;85.83;75464.44;4995324;28;20030;-86
2022/06/20 06:53:40;;;;;;;7.70;2.70;;;;;;;-148.88;86.63;75452.25;4996116;28;20476;-87
2022/06/20 06:56:16;;;;;;;10.60;2.93;;;;;;;-148.88;85.83;75448.19;4996996;28;20054;-87
2022/06/20 06:59:04;;;;;;;11.48;3.13;;;;;;;-148.88;85.71;75436.00;4996034;28;20030;-86
2022/06/20 07:01:38;;;;;;;12.98;3.70;;;;;;;-148.88;86.52;75436.00;4995081;28;20471;-85
2022/06/20 07:04:10;;;;;;;;;;;;;;;-148.88;86.00;75403.50;5012131;28;20117;-85
2022/06/20 07:06:43;;;;;;;7.20;3.10;;;;;;;-148.88;85.70;75403.50;4995241;28;19910;-86
2022/06/20 07:09:25;;;;;;;9.68;3.20;;;;;;;-148.88;85.56;75395.38;4995280;28;20074;-85
2022/06/20 07:12:35;;;;;;;9.25;3.70;;;;;;;-148.88;84.57;75381.16;4995541;28;20030;-84
2022/06/20 07:15:18;;;;;;;10.90;3.28;;;;;;;-148.88;84.70;75375.06;4980922;28;20043;-84
2022/06/20 07:17:50;;;;;;;9.90;3.08;;;;;;;-148.88;83.58;75371.00;4994691;28;20049;-85
2022/06/20 07:20:18;;;;;;;11.18;3.92;;;;;;;-148.88;84.04;75366.94;5032049;23;20046;-87
2022/06/20 07:22:45;;;;;;;9.48;2.92;;;;;;;-148.88;82.76;75330.38;4995847;28;20030;-87
2022/06/20 07:25:27;;;;;;;9.20;3.60;;;;;;;-148.88;81.70;75306.00;4994554;28;20026;-87
2022/06/20 07:28:02;;;;;;;7.03;3.30;;;;;;;-148.88;81.42;75289.75;4996147;28;20030;-86
2022/06/20 07:30:31;;;;;;;8.07;2.75;;;;;;;-148.88;79.20;75312.09;4995755;28;20098;-86
2022/06/20 07:33:17;;;;;;;7.20;2.97;;;;;;;-148.88;79.74;75352.72;4994668;28;20030;-87
2022/06/20 07:35:47;;;;;;;8.85;3.03;;;;;;;-148.88;80.38;75368.97;4994916;28;20026;-87
2022/06/20 07:38:18;;;;;;;10.40;3.05;;;;;;;-148.88;81.95;75371.00;5010647;28;20018;-87
2022/06/20 07:41:09;;;;;;;;;;;;;;;;;;;;;
2022/06/20 07:43:48;;;;;;;7.13;2.78;;;;;;;-148.88;81.58;75322.25;4996387;28;20034;-87
2022/06/20 07:46:30;;;;;;;6.00;2.78;;;;;;;-148.88;79.54;75299.91;4995535;28;20033;-86
2022/06/20 07:49:03;;;;;;;8.48;2.83;;;;;;;-148.88;80.72;75306.00;5011345;28;20030;-86
2022/06/20 07:51:34;;;;;;;9.23;2.20;;;;;;;-148.88;80.03;75306.00;5010715;28;20392;-85
2022/06/20 07:54:09;;;;;;;7.82;2.67;;;;;;;-148.88;80.83;75318.19;5010439;28;20027;-86
2022/06/20 07:56:41;;;;;;;7.97;2.85;;;;;;;-148.88;80.40;75308.03;4995307;28;20034;-86
2022/06/20 07:59:30;;;;;;;8.23;2.88;;;;;;;-148.88;80.62;75306.00;4995157;28;20031;-88
2022/06/20 08:02:10;;;;;;;10.60;2.33;;;;;;;-148.88;78.05;75287.72;4994889;28;20027;-87
2022/06/20 08:04:37;;;;;;;5.18;2.42;;;;;;;-148.88;76.00;75251.19;4995112;28;20026;-87
2022/06/20 08:07:10;;;;;;;7.20;2.28;;;;;;;-148.88;75.65;75214.63;4995093;28;20030;-86
2022/06/20 08:09:58;;;;;;;7.78;2.70;;;;;;;-148.88;74.58;75176.03;4994250;28;20388;-87
2022/06/20 08:12:32;;;;;;;6.57;2.03;;;;;;;-148.88;74.38;75196.34;5010217;28;20412;-84
2022/06/20 08:15:03;;;;;;;5.88;1.92;;;;;;;-148.88;72.83;75236.97;4994984;28;20026;-85
2022/06/20 08:17:29;;;;;;;7.97;1.90;;;;;;;-148.88;74.26;75277.59;4994382;28;20033;-87
2022/06/20 08:19:56;;;;;;;9.38;2.10;;;;;;;-148.88;73.88;75263.38;4995433;28;20539;-88
2022/06/20 08:22:32;;;;;;;5.25;2.05;;;;;;;-148.88;75.55;75281.66;4994681;28;20105;-86
2022/06/20 08:25:20;;;;;;;7.85;2.30;;;;;;;-148.88;76.10;75271.50;4995117;28;20026;-87
2022/06/20 08:27:52;;;;;;;5.45;2.10;;;;;;;-148.88;75.74;75275.56;4995331;28;20034;-86
2022/06/20 08:30:35;;;;;;;6.40;2.38;;;;;;;-148.88;74.64;75259.31;5009857;28;20113;-88
2022/06/20 08:33:16;;;;;;;7.47;2.13;;;;;;;-148.88;73.96;75261.34;4993417;28;20026;-85
2022/06/20 08:35:47;;;;;;;8.05;2.25;;;;;;;-148.88;73.28;75247.13;5009873;28;20057;-87
2022/06/20 08:38:33;;;;;;;7.40;2.65;;;;;;;-148.88;74.50;75176.03;5010212;28;20026;-86
2022/06/20 08:41:29;;;;;;;10.73;2.45;;;;;;;-148.88;74.02;75147.59;4994761;28;20022;-88
2022/06/20 08:44:01;;;;;;;8.32;1.98;;;;;;;-148.88;70.00;75145.56;4994622;28;20034;-86
2022/06/20 08:47:01;;;;;;;8.27;2.22;;;;;;;-148.88;70.38;75131.34;4993070;28;20117;-85
2022/06/20 08:50:14;;;;;;;7.18;2.08;;;;;;;-148.88;68.67;75127.28;5009927;28;20061;-86
2022/06/20 08:53:09;;;;;;;3.88;1.20;;;;;;;-148.88;64.05;75098.84;4994330;28;20034;-86
2022/06/20 08:56:10;;;;;;;5.85;1.58;;;;;;;-148.88;63.72;75147.59;4995775;28;20057;-88
2022/06/20 08:58:54;;;;;;;7.90;3.10;;;;;;;-148.88;65.68;75145.56;4995441;28;20030;-86
2022/06/20 09:01:41;;;;;;;6.70;1.90;;;;;;;-148.88;65.68;75111.03;4994633;28;20033;-86
2022/06/20 09:04:16;;;;;;;4.63;1.50;;;;;;;-148.88;59.80;75100.88;4994423;28;20041;-88
2022/06/20 09:07:09;;;;;;;7.28;1.60;;;;;;;-148.88;60.96;75135.41;4994782;28;20038;-86
2022/06/20 09:09:52;;;;;;;4.07;1.30;;;;;;;-148.88;61.41;75157.75;4993727;28;20072;-86
2022/06/20 09:12:38;;;;;;;6.53;1.42;;;;;;;-148.88;60.82;75135.41;5009644;28;20022;-87
2022/06/20 09:15:09;;;;;;;2.67;1.10;;;;;;;-148.88;57.61;75090.72;4993582;28;20030;-88
2022/06/20 09:17:56;;;;;;;3.92;1.25;;;;;;;-148.88;58.17;75086.69;4993147;28;20030;-87
2022/06/20 09:20:44;;;;;;;3.55;1.30;;;;;;;-148.88;58.93;75074.50;4993243;28;20031;-88
2022/06/20 09:23:50;;;;;;;2.80;1.10;;;;;;;-148.88;57.35;75027.78;4993732;28;20061;-86
2022/06/20 09:26:35;;;;;;;4.25;1.10;;;;;;;-148.88;55.47;75013.56;5009219;28;20508;-86
2022/06/20 09:29:19;;;;;;;4.00;0.93;;;;;;;-148.88;54.60;75015.59;4994103;28;20026;-86
2022/06/20 09:32:03;;;;;;;;;;;;;;;-148.88;52.95;74983.09;4994386;28;20030;-85
2022/06/20 09:34:41;;;;;;;4.47;1.27;;;;;;;-148.88;51.99;74989.19;4994104;28;19909;-87
2022/06/20 09:37:31;;;;;;;2.70;1.20;;;;;;;-148.88;53.67;74974.97;5010327;28;20026;-87
2022/06/20 09:40:08;;;;;;;4.95;1.23;;;;;;;-148.88;52.80;74885.63;4993455;28;20018;-87
2022/06/20 09:42:45;;;;;;;6.03;1.30;;;;;;;-148.88;51.54;74916.09;4992784;28;20030;-85
2022/06/20 09:45:32;;;;;;;4.90;1.23;;;;;;;-148.88;53.52;74972.94;5009282;28;20027;-86
2022/06/20 09:48:08;;;;;;;4.35;1.40;;;;;;;-148.88;51.96;74974.97;4993501;28;20030;-87
2022/06/20 09:51:27;;;;;;;6.80;1.20;;;;;;;-148.88;53.43;75025.75;4993447;28;20014;-87
2022/06/20 09:54:14;;;;;;;4.20;1.35;;;;;;;-148.88;53.91;75066.38;4992457;28;20022;-88
2022/06/20 09:56:54;;;;;;;3.55;1.17;;;;;;;-148.88;55.55;75042.00;4992612;28;20034;-86
2022/06/20 09:59:44;;;;;;;5.68;1.33;;;;;;;-148.88;55.13;75023.72;4993392;28;20105;-87
2022/06/20 10:02:29;;;;;;;4.03;1.30;;;;;;;-148.88;55.80;74956.69;4993182;28;20070;-85
2022/06/20 10:05:39;;;;;;;3.80;1.40;;;;;;;-148.88;53.54;74972.94;5010438;28;20401;-87
2022/06/20 10:08:19;;;;;;;3.28;1.40;;;;;;;-148.88;53.72;74938.44;5012537;28;20057;-86
2022/06/20 10:10:53;;;;;;;3.78;1.40;;;;;;;-148.88;52.70;74885.63;4996184;28;20057;-88
2022/06/20 10:13:50;;;;;;;4.97;1.40;;;;;;;-148.88;51.95;74875.47;5013045;28;20022;-87
2022/06/20 10:16:51;;;;;;;11.10;1.85;;;;;;;-148.88;51.88;74875.47;4997322;28;20022;-87
2022/06/20 10:19:24;;;;;;;3.05;1.40;;;;;;;-148.88;52.13;74883.59;5012305;28;20118;-86
2022/06/20 10:22:15;;;;;;;4.28;1.40;;;;;;;-148.88;50.53;74912.03;5012828;28;20122;-87
2022/06/20 10:24:59;;;;;;;5.75;1.48;;;;;;;-148.88;49.86;75003.41;4996285;28;20034;-86
2022/06/20 10:27:49;;;;;;;4.80;1.35;;;;;;;-148.88;51.66;74997.31;4996296;28;20384;-86
2022/06/20 10:30:31;;;;;;;4.53;1.52;;;;;;;-148.88;52.17;74997.31;4995844;28;20034;-87
2022/06/20 10:33:15;;;;;;;5.93;1.45;;;;;;;-148.88;51.96;75021.69;4996536;28;20034;-87
2022/06/20 10:35:44;;;;;;;3.97;1.50;;;;;;;-148.88;52.04;74993.25;4996745;28;20026;-86
2022/06/20 10:38:51;;;;;;;4.45;1.60;;;;;;;-148.88;50.38;74903.91;5012117;28;20041;-87
2022/06/20 10:41:30;;;;;;;4.15;1.63;;;;;;;-148.88;47.13;74867.34;4936644;29;20486;-88
2022/06/20 10:44:18;;;;;;;6.00;1.80;;;;;;;-148.88;48.71;74893.75;4986589;28;20105;-87
2022/06/20 10:46:54;;;;;;;4.32;1.80;;;;;;;-148.88;49.29;74912.03;4996742;28;20069;-87
2022/06/20 10:49:39;;;;;;;5.72;1.88;;;;;;;-148.88;47.60;74985.13;4996716;28;20026;-89
2022/06/20 10:52:23;;;;;;;6.13;1.75;;;;;;;-148.88;48.47;74895.78;4997144;28;20077;-88
2022/06/20 10:55:07;;;;;;;5.00;1.70;;;;;;;-148.88;48.25;74928.28;5012478;28;20026;-87
2022/06/20 10:58:07;;;;;;;5.40;1.70;;;;;;;-148.88;49.37;74952.63;5012670;28;20030;-86
2022/06/20 11:00:39;;;;;;;5.65;1.80;;;;;;;-148.88;50.49;75013.56;4963886;28;20041;-87
2022/06/20 11:03:42;;;;;;;3.10;1.52;;;;;;;-148.88;50.49;75003.41;4995623;28;20401;-87
2022/06/20 11:06:44;;;;;;;4.47;1.70;;;;;;;-148.88;50.59;74936.41;4920673;29;20031;-87
2022/06/20 11:09:45;;;;;;;5.50;2.20;;;;;;;-148.88;50.85;74922.19;5011190;28;20041;-86
2022/06/20 11:12:22;;;;;;;3.95;1.73;;;;;;;-148.88;48.92;74845.00;5011349;28;20034;-86
2022/06/20 11:15:22;;;;;;;7.90;2.00;;;;;;;-148.88;49.39;74792.22;4996127;28;20022;-85
2022/06/20 11:18:07;;;;;;;5.82;1.70;;;;;;;-148.88;43.14;74715.03;5012077;28;20026;-86
2022/06/20 11:20:46;;;;;;;6.68;1.60;;;;;;;-148.88;42.66;74798.31;4994853;28;20042;-86
2022/06/20 11:23:25;;;;;;;3.50;1.50;;;;;;;-148.88;42.82;74855.16;4996056;28;20034;-87
2022/06/20 11:26:07;;;;;;;4.93;1.60;;;;;;;-148.88;43.83;74891.72;5011166;28;20030;-87
2022/06/20 11:29:10;;;;;;;4.22;1.58;;;;;;;-148.88;44.18;74804.41;4996096;28;20101;-88
2022/06/20 11:31:42;;;;;;;5.70;1.75;;;;;;;-148.88;43.20;74782.06;4994544;28;20026;-86
2022/06/20 11:34:27;;;;;;;3.85;2.03;;;;;;;-148.88;43.72;74818.59;4996157;28;20027;-86
2022/06/20 11:37:24;;;;;;;5.57;1.70;;;;;;;-148.88;46.57;74838.91;4995512;28;20033;-87
2022/06/20 11:39:56;;;;;;;5.43;1.80;;;;;;;-148.88;43.92;74769.88;4982275;28;20042;-86
2022/06/20 11:42:47;;;;;;;2.58;1.13;;;;;;;-148.88;40.69;74737.38;4994235;28;20093;-88
2022/06/20 11:45:46;;;;;;;3.10;1.40;;;;;;;-148.88;41.15;74761.75;5010552;28;20029;-86
2022/06/20 11:48:25;;;;;;;4.65;1.63;;;;;;;-148.88;40.69;74682.56;4995620;28;20089;-87
2022/06/20 11:51:34;;;;;;;5.53;1.40;;;;;;;-148.88;39.33;74676.47;4995709;28;20089;-86
2022/06/20 11:54:15;;;;;;;5.40;1.48;;;;;;;-148.88;39.77;74769.88;4975985;28;20560;-86
2022/06/20 11:56:46;;;;;;;5.10;1.70;;;;;;;-148.88;40.90;74830.78;4995401;28;20030;-84
2022/06/20 11:59:22;;;;;;;3.65;1.67;;;;;;;-148.88;41.85;74806.44;4996686;28;20023;-85
2022/06/20 12:02:21;;;;;;;3.83;1.70;;;;;;;-148.88;41.20;74692.72;4997992;28;20031;-86
2022/06/20 12:04:54;;;;;;;4.15;1.52;;;;;;;-148.88;40.29;74700.84;4998688;28;20034;-86
2022/06/20 12:07:37;;;;;;;5.27;1.60;;;;;;;-148.88;40.74;74725.19;4995496;28;20026;-86
2022/06/20 12:10:17;;;;;;;5.40;2.17;;;;;;;-148.88;41.25;74759.72;4995533;28;20491;-86
2022/06/20 12:13:23;;;;;;;6.55;1.75;;;;;;;-148.88;41.30;74747.53;4994029;28;20481;-85
2022/06/20 12:16:08;;;;;;;4.45;1.77;;;;;;;-148.88;42.03;74741.44;4984786;28;20085;-86